Time;durP1;ratioP1;P1;durP2;ratioP2;P2;SDS_P1;SDS_P2;PMS_P1;PMS_P2;Temp;Humidity;BMP_temperature;BMP_pressure;BME280_temperature;BME280_humidity;BME280_pressure;Samples;Min_cycle;Max_cycle;Signal;HPM_P1;HPM_P2
2023/09/30 00:00:00;;;;;;;17.90;13.20;;;;;;;18.07;77.16;100477.68;130262;1253;114708;-69
2023/09/30 00:03:04;;;;;;;17.50;14.10;;;;;;;18.06;77.45;100474.02;130178;1260;114954;-68
2023/09/30 00:06:06;;;;;;;18.00;13.00;;;;;;;18.02;77.61;100471.94;130369;1267;114756;-68
2023/09/30 00:09:08;;;;;;;19.80;13.50;;;;;;;18.01;77.82;100476.59;130186;1258;114799;-69
2023/09/30 00:12:10;;;;;;;17.40;13.30;;;;;;;17.98;78.17;100474.40;130309;1260;114891;-68
2023/09/30 00:15:13;;;;;;;17.30;12.90;;;;;;;17.97;78.46;100477.41;129978;1270;128141;-68
2023/09/30 00:18:15;;;;;;;21.20;12.70;;;;;;;17.95;78.62;100476.69;130269;1259;114816;-69
2023/09/30 00:21:17;;;;;;;15.80;12.70;;;;;;;17.92;78.80;100472.70;130385;1257;115321;-69
2023/09/30 00:24:19;;;;;;;18.20;12.80;;;;;;;17.91;79.10;100474.40;130294;1267;115201;-69
2023/09/30 00:27:21;;;;;;;18.10;14.00;;;;;;;17.89;79.27;100480.34;130248;1254;115963;-67
2023/09/30 00:30:24;;;;;;;18.20;12.70;;;;;;;17.88;79.50;100485.45;130312;1256;114740;-67
2023/09/30 00:33:26;;;;;;;20.10;12.40;;;;;;;17.86;79.65;100475.86;130311;1256;114766;-68
2023/09/30 00:36:28;;;;;;;16.50;13.70;;;;;;;17.85;79.73;100477.61;130298;1265;114716;-68
2023/09/30 00:39:30;;;;;;;18.70;13.90;;;;;;;17.84;79.71;100481.13;130450;1256;114724;-67
2023/09/30 00:42:32;;;;;;;20.70;14.00;;;;;;;17.83;79.95;100477.59;130406;1259;115212;-67
2023/09/30 00:45:35;;;;;;;21.80;13.70;;;;;;;17.83;80.15;100477.73;130271;1266;115138;-68
2023/09/30 00:48:39;;;;;;;18.60;13.20;;;;;;;17.83;80.18;100476.48;130407;1260;114718;-68
2023/09/30 00:51:41;;;;;;;17.20;12.50;;;;;;;17.83;80.45;100477.00;130437;1264;114714;-67
2023/09/30 00:54:44;;;;;;;20.80;13.10;;;;;;;17.83;80.64;100478.42;130328;1266;114806;-68
2023/09/30 00:57:47;;;;;;;22.20;14.40;;;;;;;17.84;80.78;100483.43;130480;1256;115552;-68
2023/09/30 01:00:50;;;;;;;15.60;12.40;;;;;;;17.85;80.89;100484.66;130162;1258;114802;-68
2023/09/30 01:03:52;;;;;;;22.90;13.30;;;;;;;17.85;80.73;100480.69;130408;1258;114741;-68
2023/09/30 01:06:57;;;;;;;18.30;12.80;;;;;;;17.85;80.97;100478.46;130453;1266;114874;-68
2023/09/30 01:09:59;;;;;;;19.70;13.60;;;;;;;17.85;80.93;100478.27;130270;1257;115557;-69
2023/09/30 01:13:01;;;;;;;19.50;12.30;;;;;;;17.86;80.98;100486.56;130275;1256;114702;-68
2023/09/30 01:16:11;;;;;;;19.50;13.60;;;;;;;17.86;81.12;100486.04;130292;1275;114721;-69
2023/09/30 01:19:13;;;;;;;20.50;13.90;;;;;;;17.86;81.31;100486.34;130257;1257;115205;-68
2023/09/30 01:22:16;;;;;;;16.80;13.40;;;;;;;17.86;81.30;100488.74;130332;1257;115218;-69
2023/09/30 01:25:19;;;;;;;17.90;12.80;;;;;;;17.85;81.41;100492.21;130387;1257;114993;-68
2023/09/30 01:28:21;;;;;;;18.90;12.70;;;;;;;17.85;81.49;100497.06;130384;1273;114868;-68
2023/09/30 01:31:23;;;;;;;16.90;14.20;;;;;;;17.85;81.66;100497.29;130024;1265;114799;-69
2023/09/30 01:34:25;;;;;;;16.60;12.50;;;;;;;17.85;81.61;100496.57;130220;1259;114722;-68
2023/09/30 01:37:28;;;;;;;16.40;12.40;;;;;;;17.85;81.70;100497.46;130326;1276;114858;-68
2023/09/30 01:40:30;;;;;;;14.70;12.40;;;;;;;17.85;81.84;100494.73;129860;1276;115193;-69
2023/09/30 01:43:32;;;;;;;17.60;12.60;;;;;;;17.85;82.02;100496.38;130259;1253;114813;-68
2023/09/30 01:46:34;;;;;;;15.80;12.80;;;;;;;17.85;82.10;100499.63;130315;1260;114741;-68
2023/09/30 01:49:37;;;;;;;15.10;12.40;;;;;;;17.85;82.29;100503.26;130230;1260;114831;-69
2023/09/30 01:52:39;;;;;;;20.90;12.90;;;;;;;17.85;82.18;100500.02;130278;1257;115379;-68
2023/09/30 01:55:41;;;;;;;18.00;12.40;;;;;;;17.84;82.30;100503.13;130363;1254;114739;-69
2023/09/30 01:58:43;;;;;;;16.80;12.80;;;;;;;17.84;82.27;100503.32;130341;1257;128031;-69
2023/09/30 02:01:45;;;;;;;16.90;12.40;;;;;;;17.84;82.36;100500.96;130445;1267;114714;-68
2023/09/30 02:04:48;;;;;;;16.80;12.30;;;;;;;17.85;82.28;100499.06;130273;1267;114731;-68
2023/09/30 02:07:50;;;;;;;13.30;11.10;;;;;;;17.87;82.35;100506.52;130344;1257;114813;-68
2023/09/30 02:10:53;;;;;;;14.20;11.00;;;;;;;17.89;82.28;100501.30;130409;1260;114798;-68
2023/09/30 02:13:55;;;;;;;16.80;10.90;;;;;;;17.92;82.30;100502.16;130342;1256;115781;-68
2023/09/30 02:16:58;;;;;;;13.90;10.90;;;;;;;17.95;82.40;100505.94;130286;1266;114770;-67
2023/09/30 02:20:03;;;;;;;12.30;9.80;;;;;;;17.97;82.54;100504.14;130307;1268;114716;-68
2023/09/30 02:23:15;;;;;;;18.90;11.30;;;;;;;17.99;82.62;100506.87;130358;1257;115310;-68
2023/09/30 02:26:17;;;;;;;16.60;11.80;;;;;;;18.00;82.76;100504.08;130350;1252;114682;-68
2023/09/30 02:29:19;;;;;;;15.20;10.70;;;;;;;18.02;82.75;100499.45;130307;1257;114798;-68
2023/09/30 02:32:23;;;;;;;13.30;9.60;;;;;;;18.02;82.84;100498.15;130301;1254;114740;-69
2023/09/30 02:35:26;;;;;;;14.50;9.50;;;;;;;18.04;82.85;100500.02;130440;1254;115246;-69
2023/09/30 02:38:28;;;;;;;15.00;9.50;;;;;;;18.05;82.99;100506.42;130342;1257;114705;-69
2023/09/30 02:41:30;;;;;;;14.90;10.00;;;;;;;18.06;82.87;100510.84;130318;1258;114736;-70
2023/09/30 02:44:32;;;;;;;13.90;9.10;;;;;;;18.08;82.91;100511.64;130320;1255;115212;-69
2023/09/30 02:47:34;;;;;;;14.00;8.90;;;;;;;18.10;82.93;100522.85;130354;1257;114718;-69
2023/09/30 02:50:36;;;;;;;14.30;9.40;;;;;;;18.12;83.01;100515.87;130397;1260;114752;-70
2023/09/30 02:53:39;;;;;;;12.60;8.90;;;;;;;18.13;82.99;100520.11;130312;1254;114773;-69
2023/09/30 02:56:41;;;;;;;11.10;8.30;;;;;;;18.14;83.00;100518.59;130303;1260;114798;-69
2023/09/30 02:59:44;;;;;;;12.80;8.40;;;;;;;18.15;82.98;100522.50;130346;1257;114926;-69
2023/09/30 03:02:46;;;;;;;12.10;8.30;;;;;;;18.15;82.92;100528.41;130533;1267;128810;-70
2023/09/30 03:05:50;;;;;;;13.70;8.50;;;;;;;18.16;83.01;100530.38;130230;1259;115276;-70
2023/09/30 03:08:52;;;;;;;11.40;8.90;;;;;;;18.17;83.15;100528.70;130468;1257;114744;-70
2023/09/30 03:11:56;;;;;;;13.00;8.90;;;;;;;18.17;83.19;100531.39;130370;1259;114757;-69
2023/09/30 03:15:04;;;;;;;11.50;7.80;;;;;;;18.17;83.16;100535.85;130405;1267;115018;-69
2023/09/30 03:18:07;;;;;;;12.00;8.20;;;;;;;18.18;83.08;100538.17;130150;1273;127741;-68
2023/09/30 03:21:14;;;;;;;12.50;8.00;;;;;;;18.16;83.08;100537.40;130299;1257;115186;-69
2023/09/30 03:24:16;;;;;;;12.10;8.20;;;;;;;18.14;83.08;100538.64;130172;1260;114961;-68
2023/09/30 03:27:18;;;;;;;12.40;7.80;;;;;;;18.09;83.04;100533.07;130193;1271;114665;-68
2023/09/30 03:30:21;;;;;;;11.30;8.30;;;;;;;18.04;82.89;100532.90;130261;1259;115067;-68
2023/09/30 03:33:22;;;;;;;12.80;7.80;;;;;;;17.99;82.96;100535.98;129977;1270;114824;-68
2023/09/30 03:36:25;;;;;;;11.90;7.00;;;;;;;17.94;83.02;100539.61;130118;1260;114805;-68
2023/09/30 03:39:27;;;;;;;10.70;8.20;;;;;;;17.88;83.02;100546.93;130274;1257;114729;-69
2023/09/30 03:42:30;;;;;;;9.80;7.20;;;;;;;17.81;83.09;100552.35;129918;1268;115259;-67
2023/09/30 03:45:32;;;;;;;11.40;7.80;;;;;;;17.74;83.14;100557.91;130224;1260;115389;-69
2023/09/30 03:48:39;;;;;;;9.30;7.40;;;;;;;17.66;83.20;100562.48;130305;1258;114814;-69
2023/09/30 03:51:41;;;;;;;10.30;7.20;;;;;;;17.58;83.26;100566.52;130250;1275;114757;-69
2023/09/30 03:54:43;;;;;;;10.20;7.70;;;;;;;17.52;83.45;100565.92;130339;1275;114788;-70
2023/09/30 03:57:48;;;;;;;13.70;7.50;;;;;;;17.45;83.59;100569.10;130441;1257;114750;-69
2023/09/30 04:00:51;;;;;;;14.90;7.80;;;;;;;17.40;83.80;100573.95;130362;1257;115179;-68
2023/09/30 04:03:55;;;;;;;12.90;7.90;;;;;;;17.36;83.90;100580.59;130378;1275;114904;-68
2023/09/30 04:06:58;;;;;;;13.10;7.10;;;;;;;17.35;84.12;100585.02;130419;1260;114710;-69
2023/09/30 04:10:01;;;;;;;12.30;7.70;;;;;;;17.35;84.28;100589.91;130329;1257;114843;-68
2023/09/30 04:13:03;;;;;;;16.20;7.50;;;;;;;17.34;84.44;100587.80;130310;1258;115464;-69
2023/09/30 04:16:05;;;;;;;10.50;7.70;;;;;;;17.33;84.49;100597.09;130364;1273;114725;-69
2023/09/30 04:19:09;;;;;;;10.90;7.70;;;;;;;17.30;84.65;100597.77;130462;1257;115272;-68
2023/09/30 04:22:13;;;;;;;10.60;7.40;;;;;;;17.29;84.63;100598.27;130330;1255;114697;-68
2023/09/30 04:25:16;;;;;;;13.40;8.20;;;;;;;17.25;84.75;100603.56;130598;1255;115153;-70
2023/09/30 04:28:21;;;;;;;13.90;8.40;;;;;;;17.24;84.90;100606.03;130135;1265;114862;-68
2023/09/30 04:31:23;;;;;;;12.90;8.30;;;;;;;17.22;85.05;100603.24;130268;1254;127579;-68
2023/09/30 04:34:27;;;;;;;12.20;7.10;;;;;;;17.22;85.19;100604.56;130270;1257;114790;-68
2023/09/30 04:37:29;;;;;;;15.80;7.60;;;;;;;17.22;85.31;100609.98;130371;1257;114760;-68
2023/09/30 04:40:33;;;;;;;11.80;7.60;;;;;;;17.23;85.47;100612.96;130398;1275;114868;-70
2023/09/30 04:43:38;;;;;;;9.50;7.40;;;;;;;17.24;85.45;100612.90;130394;1257;114739;-69
2023/09/30 04:46:45;;;;;;;11.20;8.00;;;;;;;17.23;85.47;100622.14;130224;1257;128181;-69
2023/09/30 04:49:47;;;;;;;14.90;7.40;;;;;;;17.24;85.55;100622.28;130212;1258;115231;-69
2023/09/30 04:52:53;;;;;;;17.50;7.70;;;;;;;17.23;85.68;100629.34;130277;1254;114840;-68
2023/09/30 04:55:55;;;;;;;12.40;7.20;;;;;;;17.24;85.89;100638.16;130276;1267;115325;-70
2023/09/30 04:58:58;;;;;;;11.30;7.80;;;;;;;17.25;85.91;100647.07;130279;1258;114745;-69
2023/09/30 05:02:00;;;;;;;13.30;6.60;;;;;;;17.27;86.07;100652.16;130290;1257;114760;-69
2023/09/30 05:05:05;;;;;;;14.50;7.20;;;;;;;17.31;86.17;100650.09;130350;1260;114747;-69
2023/09/30 05:08:07;;;;;;;14.20;8.30;;;;;;;17.34;86.29;100648.44;130199;1257;115259;-69
2023/09/30 05:11:10;;;;;;;14.40;7.70;;;;;;;17.36;86.35;100652.96;130298;1267;114709;-69
2023/09/30 05:14:13;;;;;;;14.20;7.00;;;;;;;17.39;86.46;100654.79;130311;1276;114734;-68
2023/09/30 05:17:15;;;;;;;13.30;7.70;;;;;;;17.40;86.51;100659.35;130441;1275;114731;-68
2023/09/30 05:20:17;;;;;;;18.00;8.70;;;;;;;17.43;86.54;100671.59;130169;1254;114749;-68
2023/09/30 05:23:19;;;;;;;11.30;7.20;;;;;;;17.47;86.74;100676.59;130264;1258;115433;-70
2023/09/30 05:26:22;;;;;;;11.50;6.80;;;;;;;17.51;86.74;100677.73;130346;1254;114810;-69
2023/09/30 05:29:23;;;;;;;13.20;7.70;;;;;;;17.55;86.69;100674.73;130095;1260;114809;-69
2023/09/30 05:32:26;;;;;;;10.60;6.70;;;;;;;17.60;86.74;100674.92;127882;1267;3343334;-68
2023/09/30 05:35:29;;;;;;;17.50;8.50;;;;;;;17.66;86.68;100679.75;130267;1258;114773;-69
2023/09/30 05:38:32;;;;;;;10.40;6.50;;;;;;;17.71;86.74;100683.48;130341;1256;114815;-69
2023/09/30 05:41:33;;;;;;;12.50;7.00;;;;;;;17.77;86.80;100683.42;130417;1257;114718;-70
2023/09/30 05:44:35;;;;;;;10.80;6.80;;;;;;;17.84;86.77;100689.80;130237;1256;128938;-70
2023/09/30 05:47:37;;;;;;;11.40;6.80;;;;;;;17.90;86.70;100698.35;130447;1257;114735;-68
2023/09/30 05:50:39;;;;;;;11.40;7.50;;;;;;;17.98;86.67;100705.94;130439;1260;115006;-69
2023/09/30 05:53:42;;;;;;;13.60;7.20;;;;;;;18.05;86.61;100711.42;130333;1254;114827;-69
2023/09/30 05:56:44;;;;;;;9.10;6.30;;;;;;;18.10;86.59;100712.48;130483;1258;114822;-69
2023/09/30 05:59:46;;;;;;;12.70;6.20;;;;;;;18.13;86.55;100712.95;130334;1257;114773;-69
2023/09/30 06:02:51;;;;;;;13.40;7.20;;;;;;;18.17;86.55;100713.02;130338;1259;114749;-69
2023/09/30 06:05:53;;;;;;;;;;;;;;;18.21;86.46;100714.73;130442;1257;128839;-68
2023/09/30 06:08:59;;;;;;;10.50;5.50;;;;;;;18.23;86.34;100714.58;130318;1275;115243;-69
2023/09/30 06:12:03;;;;;;;11.10;6.20;;;;;;;18.26;86.44;100719.10;130329;1254;114850;-68
2023/09/30 06:15:06;;;;;;;11.70;6.40;;;;;;;18.29;86.39;100724.22;130282;1266;114840;-69
2023/09/30 06:18:13;;;;;;;11.40;6.20;;;;;;;18.35;86.26;100736.09;130407;1257;115163;-69
2023/09/30 06:21:17;;;;;;;9.40;5.60;;;;;;;18.40;86.13;100741.52;130318;1253;128510;-71
2023/09/30 06:24:20;;;;;;;;;;;;;;;18.41;85.61;100746.69;130381;1258;114777;-69
2023/09/30 06:27:22;;;;;;;6.30;3.60;;;;;;;18.37;84.93;100754.05;130373;1254;115328;-70
2023/09/30 06:30:32;;;;;;;7.80;3.20;;;;;;;18.33;84.69;100757.58;130350;1254;114859;-70
2023/09/30 06:33:36;;;;;;;9.50;3.60;;;;;;;18.29;84.35;100767.80;130290;1257;114803;-70
2023/09/30 06:36:38;;;;;;;7.40;2.80;;;;;;;18.24;83.81;100779.94;130281;1266;114667;-69
2023/09/30 06:39:40;;;;;;;3.70;2.10;;;;;;;18.21;83.77;100789.02;130331;1252;114767;-69
2023/09/30 06:42:42;;;;;;;5.70;2.50;;;;;;;18.17;83.44;100800.69;130424;1254;114735;-70
2023/09/30 06:45:46;;;;;;;6.70;2.40;;;;;;;18.13;82.90;100799.04;130297;1257;115295;-69
2023/09/30 06:48:48;;;;;;;6.10;2.20;;;;;;;18.08;82.53;100800.65;130327;1254;115339;-68
2023/09/30 06:51:51;;;;;;;10.20;2.40;;;;;;;18.03;81.99;100816.16;130265;1270;115218;-69
2023/09/30 06:54:53;;;;;;;8.70;2.20;;;;;;;17.98;81.68;100822.84;130455;1254;114750;-70
2023/09/30 06:57:55;;;;;;;6.70;2.20;;;;;;;17.93;81.31;100830.47;130064;1254;114917;-70
2023/09/30 07:00:57;;;;;;;6.90;2.20;;;;;;;17.89;81.22;100834.89;130197;1258;114749;-68
2023/09/30 07:04:00;;;;;;;7.80;2.90;;;;;;;17.83;80.84;100841.25;130320;1254;114708;-70
2023/09/30 07:07:03;;;;;;;4.50;1.80;;;;;;;17.78;80.71;100844.88;130285;1254;115157;-71
2023/09/30 07:10:07;;;;;;;10.60;2.20;;;;;;;17.74;80.65;100850.95;130338;1257;115159;-69
2023/09/30 07:13:09;;;;;;;8.30;2.40;;;;;;;17.70;80.69;100851.19;130357;1253;114641;-69
2023/09/30 07:16:12;;;;;;;7.60;2.80;;;;;;;17.67;80.37;100854.47;130411;1275;115083;-67
2023/09/30 07:19:14;;;;;;;10.40;3.90;;;;;;;17.64;80.11;100853.61;130363;1267;114932;-68
2023/09/30 07:22:17;;;;;;;6.20;3.20;;;;;;;17.62;80.06;100859.52;130325;1258;126930;-68
2023/09/30 07:25:19;;;;;;;8.80;2.90;;;;;;;17.62;79.97;100867.16;130300;1254;114782;-67
2023/09/30 07:28:22;;;;;;;13.00;4.30;;;;;;;17.62;79.90;100875.83;130476;1257;114891;-68
2023/09/30 07:31:26;;;;;;;8.00;3.40;;;;;;;17.62;80.00;100880.30;130400;1254;114785;-68
2023/09/30 07:34:29;;;;;;;6.00;3.60;;;;;;;17.63;80.14;100894.48;130294;1253;114760;-68
2023/09/30 07:37:32;;;;;;;7.40;4.80;;;;;;;17.64;80.16;100901.30;130279;1267;114808;-69
2023/09/30 07:40:35;;;;;;;7.90;5.00;;;;;;;17.63;80.04;100903.05;130453;1276;114783;-68
2023/09/30 07:43:37;;;;;;;10.70;6.10;;;;;;;17.61;80.07;100912.20;130376;1258;115186;-69
2023/09/30 07:46:40;;;;;;;6.40;5.40;;;;;;;17.59;80.15;100915.95;130526;1257;115144;-68
2023/09/30 07:49:42;;;;;;;10.20;5.10;;;;;;;17.55;79.93;100915.80;130350;1253;114821;-69
2023/09/30 07:52:45;;;;;;;9.50;5.10;;;;;;;17.55;79.93;100921.09;130479;1256;114717;-68
2023/09/30 07:55:52;;;;;;;9.60;4.90;;;;;;;17.57;80.09;100920.98;130438;1256;115411;-69
2023/09/30 07:58:55;;;;;;;6.80;4.20;;;;;;;17.57;79.86;100918.44;130299;1266;115169;-68
2023/09/30 08:01:57;;;;;;;11.30;4.20;;;;;;;17.55;79.55;100916.75;130387;1256;115157;-68
2023/09/30 08:05:00;;;;;;;8.20;2.90;;;;;;;17.52;79.11;100920.61;130415;1254;114779;-68
2023/09/30 08:08:04;;;;;;;8.40;3.10;;;;;;;17.51;78.90;100921.39;130460;1256;115480;-69
2023/09/30 08:11:06;;;;;;;13.70;3.00;;;;;;;17.52;78.36;100922.71;130382;1260;114820;-68
2023/09/30 08:14:09;;;;;;;6.70;2.60;;;;;;;17.55;78.12;100926.48;130381;1275;114821;-68
2023/09/30 08:17:11;;;;;;;6.70;2.40;;;;;;;17.61;77.96;100930.59;130409;1254;115198;-68
2023/09/30 08:20:14;;;;;;;8.50;2.90;;;;;;;17.69;77.83;100935.85;130203;1254;114741;-68
2023/09/30 08:23:16;;;;;;;7.90;2.50;;;;;;;17.76;77.78;100941.31;130262;1257;114728;-69
2023/09/30 08:26:18;;;;;;;9.70;3.70;;;;;;;17.84;77.37;100944.55;130417;1253;114725;-68
2023/09/30 08:29:21;;;;;;;7.30;3.00;;;;;;;17.89;76.77;100953.62;130204;1257;114939;-68
2023/09/30 08:32:24;;;;;;;9.40;2.90;;;;;;;18.00;76.73;100952.33;130531;1257;126947;-68
2023/09/30 08:35:26;;;;;;;6.60;2.60;;;;;;;18.17;76.58;100948.23;130334;1254;114783;-68
2023/09/30 08:38:29;;;;;;;6.70;3.00;;;;;;;18.39;75.92;100946.84;130459;1257;114693;-69
2023/09/30 08:41:35;;;;;;;8.40;3.80;;;;;;;18.57;75.63;100956.07;130634;1266;114740;-69
2023/09/30 08:44:41;;;;;;;12.20;3.50;;;;;;;18.85;75.41;100966.68;130411;1257;114715;-69
2023/09/30 08:47:44;;;;;;;9.70;3.10;;;;;;;19.14;74.85;100970.95;130378;1257;114731;-68
2023/09/30 08:50:46;;;;;;;6.50;2.60;;;;;;;19.36;74.36;100969.59;130357;1254;114716;-68
2023/09/30 08:53:50;;;;;;;13.20;3.80;;;;;;;19.54;74.25;100977.54;130336;1257;114732;-68
2023/09/30 08:56:53;;;;;;;7.50;3.20;;;;;;;19.61;72.88;100986.57;130343;1257;114739;-69
2023/09/30 08:59:56;;;;;;;14.50;4.00;;;;;;;19.61;72.00;100987.16;130325;1258;114777;-69
2023/09/30 09:02:58;;;;;;;11.90;4.00;;;;;;;19.71;71.77;100987.47;130277;1260;114971;-69
2023/09/30 09:06:01;;;;;;;11.40;3.60;;;;;;;19.82;70.94;100996.52;130318;1258;114881;-69
2023/09/30 09:09:19;;;;;;;9.20;3.50;;;;;;;19.92;70.34;101003.05;130185;1254;128768;-69
2023/09/30 09:12:21;;;;;;;13.90;3.60;;;;;;;19.99;68.88;101006.52;130250;1257;115276;-73
2023/09/30 09:15:25;;;;;;;15.80;3.70;;;;;;;20.02;68.18;101008.45;130352;1253;114764;-70
2023/09/30 09:18:38;;;;;;;16.30;3.90;;;;;;;20.02;68.43;101009.90;130311;1270;114840;-69
2023/09/30 09:21:54;;;;;;;11.30;3.80;;;;;;;20.02;68.24;101007.55;130227;1253;114743;-69
2023/09/30 09:24:59;;;;;;;7.10;2.90;;;;;;;19.98;67.46;101022.94;130333;1257;128019;-68
2023/09/30 09:28:02;;;;;;;6.90;2.60;;;;;;;19.93;67.27;101023.89;129978;1261;116193;-69
2023/09/30 09:31:22;;;;;;;9.80;3.20;;;;;;;19.92;66.95;101022.29;129993;1254;114841;-71
2023/09/30 09:34:25;;;;;;;6.30;2.80;;;;;;;20.02;66.97;101021.86;130177;1254;114715;-72
2023/09/30 09:37:31;;;;;;;12.90;2.80;;;;;;;20.20;66.36;101022.16;130340;1254;114895;-68
2023/09/30 09:40:34;;;;;;;7.20;2.90;;;;;;;20.32;65.80;101020.95;129990;1254;128036;-69
2023/09/30 09:43:41;;;;;;;7.50;2.30;;;;;;;20.41;64.65;101016.08;130229;1257;114801;-68
2023/09/30 09:46:45;;;;;;;14.40;2.60;;;;;;;20.49;63.95;101018.20;130287;1257;114754;-69
2023/09/30 09:49:49;;;;;;;11.70;3.60;;;;;;;20.60;63.78;101010.45;130237;1258;115023;-69
2023/09/30 09:52:54;;;;;;;7.30;2.90;;;;;;;20.71;63.48;101012.63;130297;1259;114926;-70
2023/09/30 09:55:59;;;;;;;6.20;2.30;;;;;;;20.83;62.99;101020.79;130265;1257;128947;-69
2023/09/30 09:59:04;;;;;;;8.50;2.60;;;;;;;20.90;62.24;101021.08;130280;1254;114764;-70
2023/09/30 10:02:11;;;;;;;6.20;3.00;;;;;;;20.96;61.88;101022.10;130147;1262;114818;-69
2023/09/30 10:05:14;;;;;;;12.70;2.90;;;;;;;21.01;61.76;101018.96;130154;1257;114814;-68
2023/09/30 10:08:18;;;;;;;8.30;2.80;;;;;;;21.05;61.28;101020.95;130249;1260;114773;-69
2023/09/30 10:11:20;;;;;;;8.00;2.90;;;;;;;21.06;60.86;101023.98;130214;1266;128085;-70
2023/09/30 10:14:41;;;;;;;8.00;2.90;;;;;;;21.06;60.41;101025.60;130240;1258;114746;-70
2023/09/30 10:18:11;;;;;;;7.90;2.90;;;;;;;21.06;60.44;101018.33;129963;1261;114843;-70
2023/09/30 10:21:15;;;;;;;9.60;2.90;;;;;;;21.09;60.25;101009.92;130167;1257;114774;-71
2023/09/30 10:24:23;;;;;;;9.30;2.40;;;;;;;21.12;60.04;101006.27;130439;1254;114841;-70
2023/09/30 10:27:32;;;;;;;8.10;2.70;;;;;;;21.17;60.05;101000.73;130448;1275;128961;-70
2023/09/30 10:30:35;;;;;;;8.70;2.90;;;;;;;21.25;59.60;101002.60;130650;1267;115252;-71
2023/09/30 10:34:03;;;;;;;9.70;2.80;;;;;;;21.39;59.79;101009.66;130258;1254;114974;-70
2023/09/30 10:37:26;;;;;;;6.10;2.30;;;;;;;21.52;58.79;101015.06;130195;1253;114791;-70
2023/09/30 10:40:31;;;;;;;8.50;3.00;;;;;;;21.62;58.22;101012.84;129920;1260;114847;-70
2023/09/30 10:43:35;;;;;;;7.50;3.20;;;;;;;21.70;57.95;101019.80;130361;1257;127851;-69
2023/09/30 10:46:38;;;;;;;9.10;3.10;;;;;;;21.75;57.50;101023.94;130282;1276;114732;-70
2023/09/30 10:49:40;;;;;;;7.90;2.70;;;;;;;21.80;57.34;101023.84;130317;1257;114833;-71
2023/09/30 10:52:42;;;;;;;6.60;2.50;;;;;;;21.83;56.52;101027.55;130358;1254;114737;-69
2023/09/30 10:55:46;;;;;;;9.10;2.70;;;;;;;21.88;56.23;101027.58;130284;1257;114735;-70
2023/09/30 10:58:50;;;;;;;10.50;2.60;;;;;;;21.92;55.78;101023.88;130386;1276;114765;-69
2023/09/30 11:01:53;;;;;;;6.00;2.40;;;;;;;21.93;54.91;101023.64;130326;1257;128364;-68
2023/09/30 11:04:55;;;;;;;8.20;3.50;;;;;;;21.94;55.09;101018.34;130414;1276;114830;-69
2023/09/30 11:08:03;;;;;;;9.80;3.40;;;;;;;21.92;54.79;101027.90;130251;1257;114747;-72
2023/09/30 11:11:05;;;;;;;12.30;3.20;;;;;;;21.87;54.59;101029.98;130471;1275;115102;-71
2023/09/30 11:14:21;;;;;;;10.70;3.20;;;;;;;21.83;54.11;101033.42;130488;1256;114761;-69
2023/09/30 11:17:24;;;;;;;11.40;4.00;;;;;;;21.78;53.63;101036.17;130481;1256;127771;-69
2023/09/30 11:20:26;;;;;;;13.00;3.70;;;;;;;21.76;53.76;101038.05;130423;1257;114750;-67
2023/09/30 11:23:28;;;;;;;8.60;3.40;;;;;;;21.74;53.09;101038.52;130546;1257;115091;-70
2023/09/30 11:26:34;;;;;;;11.00;3.00;;;;;;;21.70;53.33;101042.34;130530;1258;114791;-70
2023/09/30 11:29:36;;;;;;;10.50;3.90;;;;;;;21.70;53.38;101049.43;130298;1254;116458;-70
2023/09/30 11:32:38;;;;;;;14.80;3.90;;;;;;;21.68;53.09;101051.80;130332;1275;115256;-68
2023/09/30 11:35:41;;;;;;;11.70;4.20;;;;;;;21.64;53.00;101051.21;130356;1256;114751;-68
2023/09/30 11:38:48;;;;;;;9.10;3.60;;;;;;;21.62;52.68;101045.95;130393;1256;114722;-68
2023/09/30 11:41:50;;;;;;;9.10;3.50;;;;;;;21.59;52.50;101047.38;130245;1253;115153;-68
2023/09/30 11:44:52;;;;;;;11.30;3.30;;;;;;;21.56;52.44;101044.02;130323;1253;114760;-68
2023/09/30 11:47:54;;;;;;;13.90;4.00;;;;;;;21.57;52.66;101044.34;130213;1263;114754;-68
2023/09/30 11:51:00;;;;;;;13.10;3.50;;;;;;;21.59;52.79;101038.34;130310;1273;114774;-68
2023/09/30 11:54:02;;;;;;;12.40;4.20;;;;;;;21.64;52.77;101040.64;130277;1257;114783;-68
2023/09/30 11:57:05;;;;;;;7.90;3.20;;;;;;;21.69;52.84;101042.94;130263;1259;114779;-68
2023/09/30 12:00:13;;;;;;;13.30;4.00;;;;;;;21.69;52.25;101036.23;130264;1276;115182;-69
2023/09/30 12:03:16;;;;;;;7.80;3.20;;;;;;;21.68;52.29;101039.40;130282;1259;114801;-69
2023/09/30 12:06:18;;;;;;;7.10;3.00;;;;;;;21.68;52.13;101037.89;130378;1253;115147;-70
2023/09/30 12:09:26;;;;;;;11.00;3.40;;;;;;;21.67;51.86;101040.94;130236;1269;115331;-68
2023/09/30 12:12:29;;;;;;;10.50;3.30;;;;;;;21.64;51.89;101042.68;130250;1253;127526;-70
2023/09/30 12:15:31;;;;;;;11.50;3.70;;;;;;;21.62;51.91;101041.55;130232;1257;115103;-69
2023/09/30 12:18:33;;;;;;;10.80;2.70;;;;;;;21.56;51.67;101039.11;130400;1254;114764;-70
2023/09/30 12:21:36;;;;;;;10.10;3.60;;;;;;;21.44;51.81;101033.77;130229;1260;114870;-69
2023/09/30 12:24:44;;;;;;;7.70;3.10;;;;;;;21.34;51.55;101033.48;129968;1260;114911;-72
2023/09/30 12:27:47;;;;;;;13.20;3.90;;;;;;;21.21;51.63;101033.10;130239;1257;115366;-69
2023/09/30 12:30:49;;;;;;;7.90;3.00;;;;;;;21.07;51.47;101029.91;130261;1257;114723;-71
2023/09/30 12:33:52;;;;;;;10.90;3.00;;;;;;;20.95;51.58;101031.80;130228;1253;114802;-70
2023/09/30 12:36:55;;;;;;;8.60;3.90;;;;;;;20.82;51.53;101027.24;130301;1276;114868;-68
2023/09/30 12:39:58;;;;;;;10.20;2.80;;;;;;;20.66;51.69;101033.36;130303;1256;114813;-68
2023/09/30 12:43:01;;;;;;;9.40;4.20;;;;;;;20.54;51.97;101038.31;130311;1257;114759;-69
2023/09/30 12:46:04;;;;;;;8.30;3.30;;;;;;;20.45;51.78;101037.70;130423;1256;114863;-70
2023/09/30 12:49:07;;;;;;;11.80;3.50;;;;;;;20.38;51.96;101042.46;130601;1256;114741;-69
2023/09/30 12:52:09;;;;;;;12.20;3.50;;;;;;;20.29;51.58;101045.17;130379;1275;115259;-70
2023/09/30 12:55:13;;;;;;;11.30;2.90;;;;;;;20.21;51.50;101043.43;130348;1272;114772;-67
2023/09/30 12:58:15;;;;;;;16.00;3.80;;;;;;;20.15;51.75;101043.55;130319;1254;114781;-70
2023/09/30 13:01:21;;;;;;;8.80;3.00;;;;;;;20.11;51.92;101043.47;130323;1272;114725;-69
2023/09/30 13:04:24;;;;;;;7.60;2.60;;;;;;;20.07;51.68;101045.83;130189;1257;114807;-69
2023/09/30 13:07:27;;;;;;;10.20;2.90;;;;;;;20.02;51.89;101039.08;130213;1254;128094;-68
2023/09/30 13:10:30;;;;;;;9.30;2.70;;;;;;;19.99;52.10;101038.82;130426;1256;114792;-67
2023/09/30 13:13:33;;;;;;;6.70;2.40;;;;;;;19.98;52.07;101035.58;130329;1257;114765;-69
2023/09/30 13:16:35;;;;;;;10.00;3.20;;;;;;;19.98;51.98;101038.52;130362;1257;115221;-67
2023/09/30 13:19:37;;;;;;;10.50;2.70;;;;;;;19.91;51.71;101044.50;130387;1272;114804;-71
2023/09/30 13:22:40;;;;;;;11.80;3.20;;;;;;;19.80;51.35;101044.90;129967;1260;115138;-70
2023/09/30 13:25:42;;;;;;;7.10;2.70;;;;;;;19.78;51.44;101043.46;129942;1261;114902;-68
2023/09/30 13:28:44;;;;;;;10.10;2.70;;;;;;;19.77;51.41;101042.61;129965;1257;114712;-69
2023/09/30 13:31:46;;;;;;;17.90;4.50;;;;;;;19.75;51.27;101045.11;129849;1267;115296;-68
2023/09/30 13:34:50;;;;;;;13.40;2.70;;;;;;;19.66;50.87;101043.83;129911;1259;114907;-72
2023/09/30 13:37:53;;;;;;;8.40;3.60;;;;;;;19.55;50.88;101045.00;130024;1275;114933;-68
2023/09/30 13:40:55;;;;;;;9.20;2.60;;;;;;;19.54;51.44;101044.57;130139;1275;114968;-69
2023/09/30 13:43:57;;;;;;;7.50;3.10;;;;;;;19.52;51.41;101042.85;130517;1275;115318;-70
2023/09/30 13:46:59;;;;;;;5.60;2.80;;;;;;;19.49;51.53;101047.98;130032;1261;127941;-68